Time;durP1;ratioP1;P1;durP2;ratioP2;P2;SDS_P1;SDS_P2;PMS_P1;PMS_P2;Temp;Humidity;BMP_temperature;BMP_pressure;BME280_temperature;BME280_humidity;BME280_pressure;Samples;Min_cycle;Max_cycle;Signal;HPM_P1;HPM_P2
2021/07/14 00:13:32;;;;;;;1.23;1.13;;;;;;;15.57;98.15;98145.00;4820470;29;103052;-72
2021/07/14 00:24:16;;;;;;;1.53;1.13;;;;;;;15.61;97.24;98144.53;4831718;29;103314;-72
2021/07/14 00:26:44;;;;;;;1.40;1.30;;;;;;;15.65;96.24;98135.25;4831809;29;102991;-72
2021/07/14 00:29:15;;;;;;;1.40;1.30;;;;;;;15.58;97.35;98142.16;4833611;29;103988;-71
2021/07/14 00:31:43;;;;;;;4.37;1.77;;;;;;;15.55;97.93;98141.66;4850802;29;103143;-72
2021/07/14 00:34:11;;;;;;;1.40;1.30;;;;;;;15.55;97.63;98142.47;4849974;29;102609;-72
2021/07/14 00:36:39;;;;;;;1.53;1.43;;;;;;;15.54;97.81;98138.16;4850730;29;102913;-72
2021/07/14 00:39:07;;;;;;;1.30;1.20;;;;;;;15.57;97.52;98121.88;4850452;29;104381;-72
2021/07/14 00:41:35;;;;;;;2.00;1.10;;;;;;;15.58;97.36;98112.88;4850240;29;103760;-72
2021/07/14 00:44:03;;;;;;;2.30;1.53;;;;;;;15.48;97.23;98106.00;4869156;28;102890;-72
2021/07/14 00:46:33;;;;;;;4.03;1.90;;;;;;;15.38;98.98;98111.38;4867773;28;103116;-79
2021/07/14 00:49:02;;;;;;;2.20;1.80;;;;;;;15.42;98.30;98104.75;4856124;29;102870;-74
2021/07/14 00:51:31;;;;;;;1.87;1.40;;;;;;;15.48;98.17;98100.66;4839685;29;105377;-71
2021/07/14 00:53:59;;;;;;;1.80;1.60;;;;;;;15.41;98.04;98089.75;4823848;29;103063;-72
2021/07/14 00:56:28;;;;;;;2.60;1.87;;;;;;;15.23;98.76;98088.97;4832024;29;103094;-71
2021/07/14 00:58:58;;;;;;;3.80;1.90;;;;;;;15.05;100.00;98088.16;4830666;29;103743;-72
2021/07/14 01:01:27;;;;;;;2.50;1.73;;;;;;;15.00;100.00;98072.66;4816820;29;103143;-72
2021/07/14 01:04:04;;;;;;;2.60;1.90;;;;;;;14.92;100.00;98053.97;4842670;29;103152;-72
2021/07/14 01:06:46;;;;;;;1.70;1.60;;;;;;;15.05;100.00;98077.50;4844681;29;102929;-72
2021/07/14 01:09:18;;;;;;;2.23;1.50;;;;;;;15.16;100.00;98098.56;4849411;29;105212;-72
2021/07/14 01:11:48;;;;;;;2.43;2.03;;;;;;;15.21;99.63;98119.41;4854026;28;103822;-72
2021/07/14 01:14:22;;;;;;;2.47;2.00;;;;;;;15.18;99.97;98139.16;4848675;29;102966;-72
2021/07/14 01:16:57;;;;;;;2.13;1.93;;;;;;;15.15;99.16;98135.97;4849153;29;103262;-71
2021/07/14 01:19:39;;;;;;;3.13;2.20;;;;;;;14.79;100.00;98145.75;4860213;28;103843;-71
2021/07/14 01:22:26;;;;;;;1.67;1.57;;;;;;;14.94;100.00;98173.50;4852778;28;104409;-72
2021/07/14 01:25:00;;;;;;;2.30;2.10;;;;;;;15.01;100.00;98203.84;4864245;28;102964;-71
2021/07/14 01:27:35;;;;;;;4.13;2.13;;;;;;;14.91;100.00;98203.88;4869050;28;103609;-72
2021/07/14 01:30:08;;;;;;;2.90;2.53;;;;;;;14.88;100.00;98198.03;4868399;28;104902;-72
2021/07/14 01:32:37;;;;;;;2.73;1.87;;;;;;;14.92;100.00;98200.25;4868653;28;103773;-73
2021/07/14 01:35:09;;;;;;;2.40;2.10;;;;;;;14.80;100.00;98200.59;4868705;28;103396;-72
2021/07/14 01:37:37;;;;;;;5.03;2.43;;;;;;;14.75;100.00;98205.53;4849326;29;103183;-72
2021/07/14 01:40:09;;;;;;;4.33;2.43;;;;;;;14.74;100.00;98206.50;4848354;29;104132;-72
2021/07/14 01:42:41;;;;;;;2.27;1.87;;;;;;;14.84;100.00;98196.66;4862688;28;104207;-72
2021/07/14 01:45:10;;;;;;;2.30;2.10;;;;;;;14.86;100.00;98195.53;4887754;28;102764;-71
2021/07/14 01:47:40;;;;;;;1.97;1.63;;;;;;;14.96;100.00;98198.94;4869885;28;103320;-71
2021/07/14 01:50:10;;;;;;;2.50;2.00;;;;;;;15.06;100.00;98201.56;4887155;28;103793;-72
2021/07/14 01:52:40;;;;;;;5.50;2.30;;;;;;;15.06;100.00;98198.91;4885645;28;103621;-71
2021/07/14 01:55:10;;;;;;;1.97;1.87;;;;;;;15.11;99.85;98199.28;4887573;28;102864;-72
2021/07/14 01:57:41;;;;;;;2.53;1.90;;;;;;;15.12;100.00;98200.97;4887794;28;103165;-72
2021/07/14 02:00:10;;;;;;;1.70;1.60;;;;;;;15.18;100.00;98200.34;4886805;28;103971;-74
2021/07/14 02:02:50;;;;;;;2.43;1.90;;;;;;;15.23;100.00;98205.22;4864044;28;109675;-72
2021/07/14 02:05:20;;;;;;;2.80;2.60;;;;;;;15.25;100.00;98208.56;4850283;28;103000;-72
2021/07/14 02:07:48;;;;;;;5.93;3.33;;;;;;;14.93;100.00;98201.09;4868158;28;103029;-72
2021/07/14 02:10:16;;;;;;;4.70;3.40;;;;;;;15.06;100.00;98191.75;4861313;28;109535;-72
2021/07/14 02:12:49;;;;;;;3.37;2.87;;;;;;;15.20;100.00;98190.41;4865224;28;103609;-71
2021/07/14 02:15:18;;;;;;;3.40;2.50;;;;;;;15.26;100.00;98179.16;4887121;28;103169;-72
2021/07/14 02:17:53;;;;;;;3.30;3.00;;;;;;;15.35;100.00;98172.06;4885773;28;102960;-71
2021/07/14 02:20:22;;;;;;;2.80;2.60;;;;;;;15.40;100.00;98175.94;4868487;28;103953;-71
2021/07/14 02:22:52;;;;;;;4.13;2.87;;;;;;;15.46;100.00;98177.16;4867231;28;103180;-72
2021/07/14 02:25:21;;;;;;;5.40;3.60;;;;;;;15.46;99.80;98167.38;4862771;28;103059;-72
2021/07/14 02:27:51;;;;;;;3.53;2.77;;;;;;;15.50;100.00;98178.53;4867357;28;102669;-71
2021/07/14 02:30:21;;;;;;;4.20;2.67;;;;;;;15.52;99.96;98172.06;4865818;28;105204;-72
2021/07/14 02:32:53;;;;;;;4.37;3.00;;;;;;;15.50;100.00;98168.72;4867277;28;103770;-72
2021/07/14 02:35:22;;;;;;;7.63;3.87;;;;;;;15.43;99.62;98170.31;4850771;28;103528;-72
2021/07/14 02:37:57;;;;;;;3.70;3.30;;;;;;;15.33;100.00;98164.22;4850043;28;102854;-71
2021/07/14 02:40:30;;;;;;;3.00;2.60;;;;;;;15.36;100.00;98161.25;4867039;28;105308;-72
2021/07/14 02:43:03;;;;;;;3.63;2.50;;;;;;;15.42;100.00;98170.44;4867013;28;104211;-73
2021/07/14 02:45:32;;;;;;;2.83;2.60;;;;;;;15.44;100.00;98163.97;4867810;28;102906;-73
2021/07/14 02:48:02;;;;;;;2.73;2.53;;;;;;;15.45;100.00;98164.81;4867667;28;103647;-74
2021/07/14 02:50:33;;;;;;;3.43;2.60;;;;;;;15.45;100.00;98170.16;4867376;28;104432;-73
2021/07/14 02:53:07;;;;;;;2.60;2.40;;;;;;;15.44;99.92;98161.31;4865335;28;106017;-73
2021/07/14 02:55:37;;;;;;;3.53;2.37;;;;;;;15.43;99.74;98167.66;4864369;28;103051;-74
2021/07/14 02:58:09;;;;;;;3.07;2.77;;;;;;;15.40;99.28;98164.47;4865244;28;102892;-73
2021/07/14 03:00:39;;;;;;;2.63;2.10;;;;;;;15.35;98.86;98164.94;4864995;28;103889;-72
2021/07/14 03:03:08;;;;;;;2.77;2.50;;;;;;;15.36;98.80;98152.44;4870000;28;103728;-73
2021/07/14 03:05:37;;;;;;;3.00;2.23;;;;;;;15.32;98.70;98157.25;4884051;28;103018;-72
2021/07/14 03:08:12;;;;;;;2.70;2.33;;;;;;;15.28;98.72;98152.38;4884356;28;103117;-73
2021/07/14 03:10:42;;;;;;;2.97;1.83;;;;;;;15.25;99.24;98152.66;4872981;28;104796;-73
2021/07/14 03:13:12;;;;;;;2.33;2.00;;;;;;;15.24;98.74;98157.16;4852697;28;104843;-73
2021/07/14 03:15:41;;;;;;;3.53;2.00;;;;;;;15.24;98.10;98162.47;4846612;29;102914;-73
2021/07/14 03:18:14;;;;;;;2.10;1.87;;;;;;;15.25;98.18;98163.31;4829528;29;103302;-72
2021/07/14 03:20:44;;;;;;;2.30;2.10;;;;;;;15.27;98.48;98166.69;4845260;29;103959;-72
2021/07/14 03:23:12;;;;;;;2.47;1.93;;;;;;;15.22;98.66;98161.78;4846890;28;104237;-73
2021/07/14 03:25:42;;;;;;;3.13;2.77;;;;;;;15.21;98.37;98168.13;4867284;28;103026;-75
2021/07/14 03:28:11;;;;;;;4.27;2.40;;;;;;;15.19;98.51;98170.09;4867201;28;102589;-73
2021/07/14 03:30:40;;;;;;;3.30;2.50;;;;;;;15.15;98.01;98186.50;4866313;28;103507;-72
2021/07/14 03:33:08;;;;;;;3.27;2.23;;;;;;;15.00;98.68;98189.69;4866557;28;104772;-72
2021/07/14 03:35:37;;;;;;;3.07;2.43;;;;;;;15.08;99.15;98183.63;4850151;28;103008;-72
2021/07/14 03:38:09;;;;;;;1.93;1.83;;;;;;;15.14;98.10;98177.69;4867076;28;103097;-72
2021/07/14 03:40:39;;;;;;;2.40;1.83;;;;;;;15.19;98.40;98166.56;4869508;28;103320;-72
2021/07/14 03:43:09;;;;;;;4.13;2.00;;;;;;;15.24;98.55;98165.13;4869667;28;103586;-72
2021/07/14 03:45:40;;;;;;;2.50;2.10;;;;;;;15.29;98.34;98173.53;4868890;28;103107;-72
2021/07/14 03:48:16;;;;;;;6.20;2.83;;;;;;;15.00;99.43;98179.06;4870200;28;103097;-72
2021/07/14 03:50:47;;;;;;;4.50;3.00;;;;;;;14.85;100.00;98177.06;4870301;28;103417;-73
2021/07/14 03:53:17;;;;;;;3.20;2.60;;;;;;;14.82;100.00;98174.72;4869323;28;104593;-72
2021/07/14 03:55:46;;;;;;;3.80;2.47;;;;;;;14.94;100.00;98171.69;4870391;28;103188;-72
2021/07/14 03:58:15;;;;;;;3.17;2.63;;;;;;;14.90;100.00;98172.13;4870078;28;103286;-75
2021/07/14 04:00:45;;;;;;;4.83;2.60;;;;;;;15.05;100.00;98178.59;4870335;28;104428;-73
2021/07/14 04:03:13;;;;;;;2.50;2.30;;;;;;;15.14;100.00;98185.66;4856436;28;105034;-76
2021/07/14 04:05:46;;;;;;;2.83;2.23;;;;;;;15.22;99.64;98188.41;4881268;28;102491;-78
2021/07/14 04:08:18;;;;;;;3.60;2.20;;;;;;;15.26;99.44;98181.81;4876563;28;102522;-77
2021/07/14 04:10:46;;;;;;;2.57;1.90;;;;;;;15.31;99.31;98184.84;4867903;28;104363;-73
2021/07/14 04:13:15;;;;;;;2.73;2.53;;;;;;;15.29;99.37;98186.81;4856734;28;103895;-74
2021/07/14 04:15:44;;;;;;;2.50;2.20;;;;;;;15.34;99.05;98184.53;4851204;29;102917;-73
2021/07/14 04:18:12;;;;;;;3.10;1.90;;;;;;;15.39;98.33;98184.91;4850986;29;103559;-73
2021/07/14 04:20:41;;;;;;;2.40;2.20;;;;;;;15.43;97.71;98182.78;4854553;28;104378;-73
2021/07/14 04:23:10;;;;;;;6.80;2.70;;;;;;;15.39;97.67;98187.56;4868232;28;103823;-73
2021/07/14 04:25:38;;;;;;;4.47;2.60;;;;;;;15.29;98.50;98192.16;4846835;29;102983;-73
2021/07/14 04:28:07;;;;;;;2.73;2.23;;;;;;;15.34;98.67;98189.84;4850688;29;103448;-77
2021/07/14 04:30:35;;;;;;;4.83;2.27;;;;;;;15.40;98.31;98199.91;4847608;29;106404;-73
2021/07/14 04:33:04;;;;;;;3.97;2.27;;;;;;;15.47;97.90;98193.00;4857628;29;103776;-78
2021/07/14 04:35:34;;;;;;;3.07;2.40;;;;;;;15.51;97.63;98191.72;4859053;29;102506;-78
2021/07/14 04:38:02;;;;;;;3.47;2.00;;;;;;;15.55;97.67;98187.72;4857604;29;103204;-77
2021/07/14 04:40:30;;;;;;;3.57;2.10;;;;;;;15.58;97.53;98187.44;4855849;29;103865;-77
2021/07/14 04:43:16;;;;;;;4.00;2.17;;;;;;;15.59;97.49;98181.13;4864338;28;103028;-77
2021/07/14 04:45:52;;;;;;;2.20;2.10;;;;;;;15.63;97.50;98179.00;4864566;28;102607;-76
2021/07/14 04:48:22;;;;;;;3.20;2.30;;;;;;;15.62;97.16;98171.97;4856324;29;103101;-77
2021/07/14 04:50:50;;;;;;;3.43;2.20;;;;;;;15.65;97.84;98167.19;4855025;29;103989;-78
2021/07/14 04:53:18;;;;;;;2.80;2.37;;;;;;;15.69;97.60;98172.22;4867785;28;103172;-77
2021/07/14 04:55:47;;;;;;;5.33;2.10;;;;;;;15.73;97.08;98165.56;4874992;28;102529;-77
2021/07/14 04:58:15;;;;;;;3.57;2.40;;;;;;;15.76;97.15;98167.91;4875408;28;102843;-77
2021/07/14 05:00:43;;;;;;;3.53;2.57;;;;;;;15.78;96.81;98156.13;4874508;28;103836;-77
2021/07/14 05:03:13;;;;;;;2.87;2.00;;;;;;;15.81;97.29;98160.28;4874831;28;104216;-77
2021/07/14 05:05:42;;;;;;;3.08;2.20;;;;;;;15.87;97.20;98165.00;4856823;28;102544;-79
2021/07/14 05:08:10;;;;;;;1.80;1.70;;;;;;;15.88;97.80;98161.34;4867409;28;102800;-78
2021/07/14 05:10:39;;;;;;;2.93;2.10;;;;;;;15.81;97.36;98160.28;4875001;28;102871;-78
2021/07/14 05:13:07;;;;;;;2.40;1.80;;;;;;;15.90;97.26;98162.03;4874359;28;103158;-78
2021/07/14 05:15:36;;;;;;;3.15;2.10;;;;;;;16.00;96.89;98162.78;4862772;28;102759;-78
2021/07/14 05:18:04;;;;;;;2.03;1.90;;;;;;;16.03;96.59;98163.28;4903277;28;103827;-79
2021/07/14 05:20:41;;;;;;;3.83;2.23;;;;;;;16.13;96.42;98166.69;4883650;28;104968;-79
2021/07/14 05:27:43;;;;;;;2.42;2.22;;;;;;;16.23;96.46;98171.88;4885416;28;102714;-77
2021/07/14 05:30:12;;;;;;;2.20;2.00;;;;;;;16.29;95.99;98165.91;4887723;28;103719;-77
2021/07/14 05:32:47;;;;;;;5.40;2.57;;;;;;;16.30;94.00;98167.59;4882119;28;103430;-79
2021/07/14 05:35:20;;;;;;;4.13;1.70;;;;;;;16.31;94.18;98168.44;4869781;28;105259;-73
2021/07/14 05:37:49;;;;;;;2.77;2.57;;;;;;;16.20;94.56;98166.84;4870221;28;103072;-74
2021/07/14 05:40:17;;;;;;;2.53;2.30;;;;;;;16.25;93.21;98167.25;4869980;28;102811;-73
2021/07/14 05:42:45;;;;;;;2.20;2.00;;;;;;;16.30;92.70;98172.91;4869434;28;103042;-73
2021/07/14 05:45:14;;;;;;;2.22;2.00;;;;;;;16.36;92.23;98172.28;4869489;28;104202;-73
2021/07/14 05:47:42;;;;;;;2.17;2.00;;;;;;;16.43;92.41;98170.63;4852699;28;102835;-73
2021/07/14 05:50:12;;;;;;;3.03;2.13;;;;;;;16.42;91.30;98176.16;4852501;28;103383;-73
2021/07/14 05:52:47;;;;;;;2.60;2.00;;;;;;;16.42;91.04;98181.47;4869289;28;104376;-73
2021/07/14 05:55:16;;;;;;;3.15;1.90;;;;;;;16.45;91.21;98181.97;4870308;28;103752;-74
2021/07/14 05:57:44;;;;;;;3.60;2.25;;;;;;;16.39;91.35;98177.31;4870357;28;102598;-73
2021/07/14 06:00:13;;;;;;;2.55;1.92;;;;;;;16.38;90.34;98186.28;4870327;28;102818;-73
2021/07/14 06:02:41;;;;;;;2.47;2.25;;;;;;;16.38;90.72;98180.94;4852163;28;106910;-73
2021/07/14 06:05:10;;;;;;;2.42;2.22;;;;;;;16.42;90.41;98181.47;4870199;28;103729;-75
2021/07/14 06:07:38;;;;;;;1.77;1.67;;;;;;;16.52;91.11;98180.34;4870121;28;102986;-74
2021/07/14 06:10:08;;;;;;;2.20;2.00;;;;;;;16.61;90.91;98182.09;4864156;28;103832;-73
2021/07/14 06:12:37;;;;;;;1.92;1.83;;;;;;;16.73;90.55;98186.13;4856862;28;105085;-74
2021/07/14 06:15:06;;;;;;;3.70;1.93;;;;;;;16.73;91.24;98180.78;4870649;28;103178;-74
2021/07/14 06:17:34;;;;;;;3.45;2.38;;;;;;;16.67;91.86;98176.09;4869629;28;102563;-77
2021/07/14 06:20:05;;;;;;;5.00;3.05;;;;;;;16.59;91.16;98184.06;4869216;28;102647;-74
2021/07/14 06:22:33;;;;;;;3.85;2.83;;;;;;;16.61;91.57;98183.91;4851458;28;103856;-74
2021/07/14 06:25:01;;;;;;;3.20;2.90;;;;;;;16.51;91.04;98192.00;4867178;28;103226;-75
2021/07/14 06:27:42;;;;;;;3.20;2.00;;;;;;;16.67;90.82;98202.75;4874316;28;103178;-74
2021/07/14 06:30:12;;;;;;;3.90;2.28;;;;;;;16.74;89.68;98203.81;4874042;28;104507;-74
2021/07/14 06:32:42;;;;;;;4.05;3.20;;;;;;;16.77;89.80;98206.16;4874052;28;104077;-74
2021/07/14 06:35:12;;;;;;;2.80;2.55;;;;;;;16.81;90.22;98188.81;4854833;28;103131;-74
2021/07/14 06:37:41;;;;;;;4.13;2.20;;;;;;;16.83;90.43;98195.81;4871777;28;102639;-74
2021/07/14 06:40:11;;;;;;;2.10;1.95;;;;;;;16.85;88.22;98191.16;4856256;28;102625;-74
2021/07/14 06:42:40;;;;;;;2.47;1.75;;;;;;;16.94;88.87;98190.19;4877999;28;103457;-74
2021/07/14 06:45:11;;;;;;;6.18;2.38;;;;;;;16.76;90.69;98191.13;4890260;28;103837;-74
2021/07/14 06:47:39;;;;;;;3.13;2.08;;;;;;;16.86;89.40;98191.00;4891124;28;102861;-73
2021/07/14 06:50:09;;;;;;;2.45;2.22;;;;;;;17.03;90.29;98191.88;4890245;28;104523;-74
2021/07/14 06:52:38;;;;;;;3.92;2.85;;;;;;;16.94;90.94;98192.84;4889309;28;105147;-74
2021/07/14 06:55:07;;;;;;;3.35;2.33;;;;;;;17.01;90.50;98188.56;4889991;28;103798;-75
2021/07/14 06:57:36;;;;;;;2.75;2.00;;;;;;;17.05;89.99;98184.53;4890240;28;102605;-74
2021/07/14 07:00:07;;;;;;;3.00;2.20;;;;;;;17.15;89.90;98174.56;4890857;28;102754;-74
2021/07/14 07:02:36;;;;;;;2.13;1.92;;;;;;;17.02;89.57;98168.84;4889870;28;105429;-74
2021/07/14 07:05:06;;;;;;;2.30;2.08;;;;;;;17.13;89.83;98179.22;4890131;28;105453;-74
2021/07/14 07:07:35;;;;;;;3.88;1.95;;;;;;;17.26;90.55;98176.91;4889381;28;103236;-74
2021/07/14 07:10:04;;;;;;;2.20;2.00;;;;;;;17.24;89.38;98170.88;4890793;28;104733;-74
2021/07/14 07:12:32;;;;;;;2.60;2.40;;;;;;;17.25;89.55;98173.41;4889776;28;103803;-74
2021/07/14 07:15:00;;;;;;;6.38;3.40;;;;;;;16.95;88.74;98173.19;4889410;28;103826;-74
2021/07/14 07:17:28;;;;;;;3.38;2.55;;;;;;;16.79;90.30;98174.81;4890200;28;102771;-74
2021/07/14 07:19:57;;;;;;;3.17;2.63;;;;;;;17.01;89.65;98169.88;4890652;28;102708;-73
2021/07/14 07:22:25;;;;;;;3.55;3.25;;;;;;;17.20;89.49;98177.56;4895565;28;104055;-74
2021/07/14 07:24:55;;;;;;;2.90;2.60;;;;;;;17.33;89.74;98172.56;4896184;28;104945;-74
2021/07/14 07:27:25;;;;;;;3.38;2.38;;;;;;;17.39;89.35;98177.25;4890167;28;102493;-75
2021/07/14 07:29:53;;;;;;;3.47;2.42;;;;;;;17.46;89.94;98180.91;4888695;28;102820;-74
2021/07/14 07:32:21;;;;;;;4.03;2.50;;;;;;;17.27;89.78;98189.25;4870172;28;106819;-75
2021/07/14 07:34:49;;;;;;;2.50;1.98;;;;;;;17.39;89.65;98198.63;4887960;28;108968;-74
2021/07/14 07:37:19;;;;;;;2.30;2.10;;;;;;;17.48;89.57;98197.63;4888691;28;102944;-74
2021/07/14 07:39:48;;;;;;;4.75;2.55;;;;;;;17.48;89.29;98196.78;4888273;28;102672;-74
2021/07/14 07:42:16;;;;;;;1.92;1.83;;;;;;;17.53;88.55;98205.13;4883992;28;104071;-74
2021/07/14 07:44:45;;;;;;;2.47;2.00;;;;;;;17.62;89.31;98205.00;4868685;28;103956;-74
2021/07/14 07:47:14;;;;;;;2.13;1.92;;;;;;;17.63;89.37;98213.84;4867498;28;103007;-75
2021/07/14 07:49:45;;;;;;;2.17;1.98;;;;;;;17.59;88.83;98208.00;4869458;28;102895;-75
2021/07/14 07:52:28;;;;;;;3.70;2.22;;;;;;;17.49;89.64;98201.94;4868884;28;104244;-76
2021/07/14 07:54:59;;;;;;;5.38;2.40;;;;;;;17.51;88.79;98199.13;4851510;28;103252;-74
2021/07/14 07:57:27;;;;;;;3.42;2.63;;;;;;;17.33;88.14;98205.44;4867374;28;102585;-74
2021/07/14 07:59:55;;;;;;;2.65;2.45;;;;;;;17.43;89.77;98202.63;4850690;28;105682;-75
2021/07/14 08:02:23;;;;;;;2.50;2.30;;;;;;;17.44;89.07;98209.63;4869003;28;104115;-74
2021/07/14 08:04:52;;;;;;;1.70;1.60;;;;;;;17.53;87.83;98219.31;4868265;28;104182;-74
2021/07/14 08:07:20;;;;;;;2.53;2.33;;;;;;;17.23;87.39;98222.63;4868983;28;102596;-75
2021/07/14 08:09:49;;;;;;;6.32;2.88;;;;;;;17.12;91.16;98228.28;4869334;28;103628;-74
2021/07/14 08:12:17;;;;;;;3.88;3.30;;;;;;;16.84;92.41;98237.53;4868425;28;103489;-74
2021/07/14 08:14:45;;;;;;;4.50;3.03;;;;;;;16.96;93.07;98238.88;4868993;28;103731;-76
2021/07/14 08:17:13;;;;;;;2.88;2.50;;;;;;;17.10;93.36;98232.91;4869044;28;103063;-74
2021/07/14 08:19:42;;;;;;;5.85;3.00;;;;;;;16.90;93.61;98229.69;4868787;28;103121;-74
2021/07/14 08:22:10;;;;;;;3.40;2.90;;;;;;;16.69;94.98;98237.28;4851373;28;103458;-74
2021/07/14 08:24:38;;;;;;;4.53;3.17;;;;;;;16.88;93.65;98242.34;4845062;28;105467;-74
2021/07/14 08:27:07;;;;;;;5.50;2.95;;;;;;;17.08;92.26;98237.59;4872077;28;102662;-74
2021/07/14 08:29:37;;;;;;;3.40;2.10;;;;;;;17.32;93.15;98235.81;4870929;28;102971;-75
2021/07/14 08:32:08;;;;;;;3.45;2.58;;;;;;;17.39;92.40;98242.19;4871757;28;104031;-74
2021/07/14 08:34:36;;;;;;;7.38;3.10;;;;;;;17.38;91.95;98239.66;4871888;28;103990;-75
2021/07/14 08:37:06;;;;;;;4.95;3.15;;;;;;;17.45;91.99;98240.69;4871612;28;102657;-75
2021/07/14 08:39:34;;;;;;;4.47;3.03;;;;;;;17.36;92.19;98241.66;4855321;28;102788;-74
2021/07/14 08:42:04;;;;;;;4.05;2.97;;;;;;;17.52;92.63;98240.84;4870676;28;103477;-76
2021/07/14 08:44:36;;;;;;;6.68;4.53;;;;;;;17.49;92.46;98244.66;4871319;28;103683;-75
2021/07/14 08:47:04;;;;;;;2.95;2.65;;;;;;;17.47;93.06;98254.69;4870790;28;102798;-75
2021/07/14 08:49:33;;;;;;;3.25;2.72;;;;;;;17.67;92.69;98257.91;4871248;28;102827;-75
2021/07/14 08:52:01;;;;;;;31.55;10.30;;;;;;;17.64;92.30;98261.75;4871087;28;104323;-74
2021/07/14 08:54:30;;;;;;;16.10;6.43;;;;;;;17.62;92.97;98263.78;4871631;28;103743;-75
2021/07/14 08:56:58;;;;;;;12.93;5.60;;;;;;;17.66;93.00;98270.44;4871888;28;102640;-74
2021/07/14 08:59:26;;;;;;;6.43;4.10;;;;;;;17.71;92.82;98273.44;4871897;28;102778;-76
2021/07/14 09:01:55;;;;;;;5.32;3.92;;;;;;;17.40;92.17;98264.38;4871511;28;103883;-75
2021/07/14 09:04:23;;;;;;;5.97;4.50;;;;;;;17.46;91.82;98268.22;4836158;29;105940;-76
2021/07/14 09:06:52;;;;;;;4.63;3.00;;;;;;;17.80;92.38;98267.09;4852836;29;102696;-75
2021/07/14 09:09:22;;;;;;;7.15;3.90;;;;;;;17.97;91.26;98273.28;4835794;29;104236;-75
2021/07/14 09:11:52;;;;;;;6.10;4.30;;;;;;;17.98;92.10;98263.44;4852165;28;103624;-75
2021/07/14 09:14:28;;;;;;;7.30;4.97;;;;;;;18.05;89.71;98269.81;4890415;28;103760;-75
2021/07/14 09:16:58;;;;;;;3.80;3.50;;;;;;;18.25;90.29;98265.75;4890879;28;102841;-75
2021/07/14 09:19:29;;;;;;;6.00;4.50;;;;;;;18.11;92.53;98269.09;4857689;28;102619;-76
2021/07/14 09:21:59;;;;;;;5.32;3.58;;;;;;;18.41;90.37;98265.75;4875681;28;111189;-74
2021/07/14 09:24:28;;;;;;;12.75;5.78;;;;;;;18.51;90.35;98267.25;4870903;28;103886;-75
2021/07/14 09:26:58;;;;;;;6.38;4.00;;;;;;;18.69;89.66;98267.03;4871625;28;102617;-75
2021/07/14 09:29:26;;;;;;;6.75;4.47;;;;;;;19.00;89.55;98262.53;4871590;28;104238;-75
2021/07/14 09:31:55;;;;;;;10.85;5.70;;;;;;;18.88;88.04;98271.97;4871058;28;103204;-75
2021/07/14 09:34:33;;;;;;;10.80;4.80;;;;;;;18.87;87.98;98259.59;4870180;28;103836;-75
2021/07/14 09:37:03;;;;;;;15.55;7.40;;;;;;;18.69;88.22;98269.72;4868557;28;102974;-75
2021/07/14 09:39:37;;;;;;;17.63;6.32;;;;;;;18.75;87.70;98263.66;4869213;28;102764;-75
2021/07/14 09:42:08;;;;;;;6.28;4.30;;;;;;;19.13;86.96;98253.13;4870633;28;104523;-75
2021/07/14 09:44:45;;;;;;;5.70;3.63;;;;;;;19.10;86.32;98249.78;4840470;28;105528;-74
2021/07/14 09:47:18;;;;;;;5.68;3.75;;;;;;;19.33;84.16;98243.66;4872740;28;102876;-75
2021/07/14 09:49:49;;;;;;;6.07;3.70;;;;;;;19.54;85.06;98246.53;4872191;28;103440;-74
2021/07/14 09:52:18;;;;;;;3.35;3.05;;;;;;;19.47;86.41;98249.13;4871356;28;104370;-75
2021/07/14 09:54:47;;;;;;;6.95;3.45;;;;;;;19.20;84.28;98246.88;4870701;28;103947;-75
2021/07/14 09:57:16;;;;;;;3.50;2.83;;;;;;;19.54;85.17;98242.03;4870961;28;103203;-75
2021/07/14 09:59:46;;;;;;;2.58;2.10;;;;;;;19.68;82.71;98240.41;4869615;28;102977;-76
2021/07/14 10:02:17;;;;;;;3.97;2.28;;;;;;;19.91;82.98;98246.59;4867708;28;104507;-77
2021/07/14 10:04:47;;;;;;;3.50;2.85;;;;;;;19.58;80.27;98258.59;4868609;28;103668;-75
2021/07/14 10:07:24;;;;;;;3.90;2.67;;;;;;;19.87;82.03;98256.03;4867499;28;102993;-75
2021/07/14 10:09:54;;;;;;;3.70;2.47;;;;;;;19.98;80.67;98255.59;4863364;28;103214;-76
2021/07/14 10:12:30;;;;;;;2.55;2.35;;;;;;;20.29;80.69;98260.03;4853484;28;103917;-75
2021/07/14 10:14:59;;;;;;;4.03;2.78;;;;;;;20.36;77.49;98266.34;4868069;28;105454;-76
2021/07/14 10:17:41;;;;;;;2.75;2.30;;;;;;;20.72;80.22;98267.28;4867886;28;103048;-75
2021/07/14 10:20:29;;;;;;;4.13;2.75;;;;;;;20.60;78.11;98258.84;4868237;28;102608;-76
2021/07/14 10:23:01;;;;;;;3.95;2.70;;;;;;;21.16;76.27;98264.63;4868116;28;103376;-76
2021/07/14 10:25:29;;;;;;;2.72;2.17;;;;;;;21.27;72.83;98262.28;4849026;28;103773;-74
2021/07/14 10:27:59;;;;;;;2.83;2.25;;;;;;;21.76;75.39;98265.06;4848173;29;103113;-77
2021/07/14 10:30:29;;;;;;;4.70;2.67;;;;;;;21.73;72.37;98264.63;4837530;29;103221;-82
2021/07/14 10:32:58;;;;;;;2.78;2.50;;;;;;;21.89;77.22;98267.91;4856440;28;103801;-80
2021/07/14 10:35:29;;;;;;;3.85;2.45;;;;;;;22.03;75.42;98263.50;4860485;28;103715;-81
2021/07/14 10:38:19;;;;;;;6.15;3.28;;;;;;;21.98;73.55;98265.94;4840707;29;103337;-83
2021/07/14 10:40:48;;;;;;;5.43;3.33;;;;;;;22.16;75.79;98269.00;4857027;28;103173;-81
2021/07/14 10:43:21;;;;;;;3.47;2.15;;;;;;;21.93;71.70;98276.44;4843564;28;104212;-80
2021/07/14 10:45:51;;;;;;;2.45;2.25;;;;;;;22.12;71.55;98275.78;4839307;29;104218;-78
2021/07/14 10:48:21;;;;;;;2.53;1.98;;;;;;;22.19;69.42;98271.31;4845291;29;103006;-75
2021/07/14 10:50:51;;;;;;;1.77;1.67;;;;;;;22.23;68.67;98269.88;4844714;29;103171;-77
2021/07/14 10:53:24;;;;;;;1.98;1.88;;;;;;;22.42;67.53;98263.00;4843858;29;105148;-76
2021/07/14 10:55:55;;;;;;;2.55;2.00;;;;;;;22.53;69.22;98276.75;4840629;29;103836;-77
2021/07/14 10:58:25;;;;;;;2.00;1.80;;;;;;;22.38;67.75;98270.63;4840028;29;103109;-76
2021/07/14 11:00:53;;;;;;;2.60;1.75;;;;;;;22.29;69.31;98274.47;4841089;29;103251;-78
2021/07/14 11:03:45;;;;;;;5.28;1.90;;;;;;;22.97;66.50;98278.28;4859131;28;104932;-79
2021/07/14 11:06:15;;;;;;;1.65;1.48;;;;;;;23.00;66.06;98267.94;4864179;28;104381;-83
2021/07/14 11:08:47;;;;;;;2.25;1.65;;;;;;;23.35;66.85;98266.03;4865138;28;102926;-80
2021/07/14 11:11:17;;;;;;;48.35;13.65;;;;;;;23.17;66.08;98265.75;4864732;28;102874;-81
2021/07/14 11:13:48;;;;;;;4.35;2.40;;;;;;;23.12;64.71;98270.06;4879928;28;105205;-81
2021/07/14 11:16:25;;;;;;;2.33;1.38;;;;;;;22.66;63.12;98269.81;4883375;28;105168;-76
2021/07/14 11:19:06;;;;;;;1.70;1.52;;;;;;;22.87;62.78;98267.03;4881210;28;102986;-78
2021/07/14 11:21:47;;;;;;;2.08;1.38;;;;;;;22.99;61.66;98266.28;4858951;28;103427;-82
2021/07/14 11:24:53;;;;;;;2.45;1.30;;;;;;;22.94;63.21;98262.50;4862544;28;104833;-80
2021/07/14 11:27:43;;;;;;;1.48;1.10;;;;;;;23.27;60.37;98263.50;4861110;28;103956;-79
2021/07/14 11:30:40;;;;;;;2.90;1.80;;;;;;;22.90;62.10;98250.50;4811083;29;103264;-79
2021/07/14 11:33:10;;;;;;;3.28;1.38;;;;;;;23.15;62.67;98253.50;4856837;28;103309;-80
2021/07/14 11:35:49;;;;;;;1.27;1.17;;;;;;;23.07;60.13;98249.94;4861824;28;109567;-80
2021/07/14 11:38:21;;;;;;;1.98;1.40;;;;;;;23.50;62.83;98245.16;4862777;28;103679;-80
2021/07/14 11:40:51;;;;;;;1.27;1.10;;;;;;;23.14;60.99;98247.28;4858580;28;103283;-81
2021/07/14 11:43:39;;;;;;;2.25;1.05;;;;;;;23.28;60.34;98237.38;4846222;28;103249;-76
2021/07/14 11:46:11;;;;;;;1.50;1.08;;;;;;;23.37;61.33;98238.88;4841737;28;104779;-76
2021/07/14 11:48:42;;;;;;;1.35;1.25;;;;;;;23.42;59.06;98231.88;4859146;28;106234;-76
2021/07/14 11:51:21;;;;;;;2.40;1.30;;;;;;;23.71;58.02;98233.38;4864211;28;103284;-81
2021/07/14 11:53:51;;;;;;;1.73;1.02;;;;;;;24.20;57.78;98227.63;4881137;28;103417;-77
2021/07/14 11:56:33;;;;;;;2.15;0.95;;;;;;;23.55;57.15;98218.41;4872438;28;103393;-79
2021/07/14 11:59:14;;;;;;;1.08;0.98;;;;;;;23.65;57.73;98218.84;4861584;28;103768;-76
2021/07/14 12:02:03;;;;;;;1.15;1.05;;;;;;;23.76;58.18;98225.50;4840095;28;103407;-78
2021/07/14 12:05:01;;;;;;;1.20;1.10;;;;;;;24.09;55.94;98212.03;4878614;28;103062;-81
2021/07/14 12:07:39;;;;;;;0.93;0.90;;;;;;;24.36;56.71;98205.63;4884524;28;104087;-76